Time;durP1;ratioP1;P1;durP2;ratioP2;P2;SDS_P1;SDS_P2;PMS_P1;PMS_P2;Temp;Humidity;BMP_temperature;BMP_pressure;BME280_temperature;BME280_humidity;BME280_pressure;Samples;Min_cycle;Max_cycle;Signal;HPM_P1;HPM_P2
2021/08/24 00:01:36;;;;;;;4.77;1.80;;;;;;;18.98;100.00;100531.11;1764099;80;21004;-59
2021/08/24 00:04:03;;;;;;;4.10;1.90;;;;;;;18.97;100.00;100530.80;1762417;80;21139;-57
2021/08/24 00:06:29;;;;;;;4.57;1.80;;;;;;;18.89;100.00;100525.35;1766468;80;21150;-58
2021/08/24 00:08:56;;;;;;;3.97;1.90;;;;;;;18.91;100.00;100528.58;1765532;80;21007;-59
2021/08/24 00:11:24;;;;;;;4.30;2.00;;;;;;;18.92;100.00;100526.22;1766870;80;20983;-59
2021/08/24 00:13:52;;;;;;;3.10;1.67;;;;;;;18.99;100.00;100530.59;1763130;80;21059;-59
2021/08/24 00:16:18;;;;;;;5.27;1.70;;;;;;;18.97;100.00;100529.48;1766786;80;21141;-58
2021/08/24 00:18:45;;;;;;;5.93;1.60;;;;;;;18.89;100.00;100524.55;1767185;80;21074;-59
2021/08/24 00:21:12;;;;;;;3.37;1.73;;;;;;;18.91;100.00;100525.94;1767765;80;20995;-59
2021/08/24 00:23:39;;;;;;;5.10;1.80;;;;;;;18.93;100.00;100524.38;1728870;82;21498;-58
2021/08/24 00:26:05;;;;;;;5.50;1.80;;;;;;;18.76;100.00;100519.52;1730067;82;21495;-58
2021/08/24 00:28:32;;;;;;;5.13;2.10;;;;;;;18.65;100.00;100527.70;1729324;82;21210;-59
2021/08/24 00:30:58;;;;;;;3.93;1.63;;;;;;;18.62;100.00;100524.19;1724214;82;22361;-59
2021/08/24 00:33:25;;;;;;;5.10;1.93;;;;;;;18.66;100.00;100523.50;1713336;82;21020;-59
2021/08/24 00:35:53;;;;;;;5.00;2.20;;;;;;;18.75;100.00;100523.17;1709631;83;21518;-57
2021/08/24 00:38:22;;;;;;;4.50;2.03;;;;;;;18.69;100.00;100527.52;1711785;82;21110;-57
2021/08/24 00:40:55;;;;;;;6.73;2.03;;;;;;;18.50;100.00;100524.19;1712226;83;21235;-59
2021/08/24 00:43:23;;;;;;;3.43;2.03;;;;;;;18.66;100.00;100525.34;1708948;82;20996;-59
2021/08/24 00:45:54;;;;;;;4.90;2.20;;;;;;;18.56;100.00;100520.64;1710598;82;21122;-58
2021/08/24 00:48:27;;;;;;;3.15;1.52;;;;;;;18.52;100.00;100522.11;1711599;82;21134;-57
2021/08/24 00:50:54;;;;;;;4.20;1.93;;;;;;;18.46;100.00;100528.31;1709911;83;21364;-58
2021/08/24 00:53:25;;;;;;;5.87;2.40;;;;;;;18.43;100.00;100523.48;1712532;82;21145;-57
2021/08/24 00:55:53;;;;;;;3.85;2.30;;;;;;;18.46;100.00;100521.72;1711933;83;20948;-59
2021/08/24 00:58:20;;;;;;;6.33;3.20;;;;;;;18.40;100.00;100516.02;1711446;82;21510;-59
2021/08/24 01:00:46;;;;;;;7.53;3.33;;;;;;;18.35;100.00;100515.91;1708930;83;21114;-59
2021/08/24 01:03:21;;;;;;;6.17;3.27;;;;;;;18.23;100.00;100515.37;1712173;83;21151;-59
2021/08/24 01:05:50;;;;;;;7.77;3.70;;;;;;;18.20;100.00;100524.26;1711518;82;21132;-59
2021/08/24 01:08:31;;;;;;;;;;;;;;;18.16;100.00;100527.86;1734308;80;21016;-59
2021/08/24 01:11:09;;;;;;;7.67;3.43;;;;;;;18.17;100.00;100520.75;1735665;81;20111;-59
2021/08/24 01:14:01;;;;;;;7.03;3.60;;;;;;;18.15;100.00;100515.71;1716409;82;22323;-59
2021/08/24 01:16:47;;;;;;;5.53;3.30;;;;;;;18.22;100.00;100508.50;1726801;82;20961;-59
2021/08/24 01:19:47;;;;;;;5.43;3.23;;;;;;;18.18;100.00;100502.56;1724206;82;21152;-58
2021/08/24 01:22:37;;;;;;;5.63;3.53;;;;;;;18.16;100.00;100505.95;1728544;82;20976;-57
2021/08/24 01:25:10;;;;;;;6.70;3.23;;;;;;;18.10;100.00;100517.41;1734159;82;21523;-59
2021/08/24 01:27:43;;;;;;;5.77;2.80;;;;;;;18.01;100.00;100506.38;1727781;82;21099;-58
2021/08/24 01:30:48;;;;;;;4.70;2.87;;;;;;;18.05;100.00;100517.28;1730447;81;21066;-59
2021/08/24 01:33:31;;;;;;;5.20;2.57;;;;;;;18.00;100.00;100510.05;1728388;82;21574;-57
2021/08/24 01:36:16;;;;;;;4.72;2.62;;;;;;;17.97;100.00;100510.50;1715880;82;21489;-58
2021/08/24 01:39:08;;;;;;;7.03;2.43;;;;;;;17.91;100.00;100517.98;1771395;80;20872;-57
2021/08/24 01:41:54;;;;;;;;;;;;;;;17.87;100.00;100516.83;1775512;80;21010;-58
2021/08/24 01:44:24;;;;;;;4.90;2.70;;;;;;;17.98;100.00;100511.58;1771296;80;20129;-56
2021/08/24 01:47:34;;;;;;;4.37;2.37;;;;;;;17.97;100.00;100509.18;1761674;80;21547;-57
2021/08/24 01:50:09;;;;;;;3.90;2.30;;;;;;;17.90;100.00;100519.02;1760417;80;21448;-58
2021/08/24 01:52:39;;;;;;;5.20;2.47;;;;;;;18.11;100.00;100523.79;1763154;80;21007;-58
2021/08/24 01:55:20;;;;;;;5.22;2.05;;;;;;;17.94;100.00;100529.41;1744685;80;20991;-59
2021/08/24 01:58:03;;;;;;;4.17;2.73;;;;;;;18.02;100.00;100536.20;1759366;80;21490;-57
2021/08/24 02:00:32;;;;;;;4.10;2.30;;;;;;;18.00;100.00;100540.39;1773695;80;21147;-58
2021/08/24 02:03:02;;;;;;;5.47;2.10;;;;;;;17.68;100.00;100540.56;1761865;80;21001;-58
2021/08/24 02:05:36;;;;;;;6.77;2.67;;;;;;;17.68;100.00;100548.99;1765898;80;20985;-58
2021/08/24 02:08:10;;;;;;;5.83;2.97;;;;;;;17.75;100.00;100549.23;1761418;80;21403;-58
2021/08/24 02:10:37;;;;;;;8.47;2.60;;;;;;;17.74;100.00;100542.33;1754725;79;21478;-58
2021/08/24 02:13:04;;;;;;;5.33;2.30;;;;;;;17.75;100.00;100543.16;1770250;79;21127;-58
2021/08/24 02:15:39;;;;;;;8.23;3.13;;;;;;;17.67;100.00;100544.23;1764332;80;20943;-56
2021/08/24 02:18:07;;;;;;;4.60;3.07;;;;;;;17.73;100.00;100546.00;1763706;78;21097;-60
2021/08/24 02:20:38;;;;;;;5.37;2.83;;;;;;;17.60;100.00;100550.62;1755206;79;21573;-57
2021/08/24 02:23:08;;;;;;;6.47;3.65;;;;;;;17.60;100.00;100551.94;1724045;81;27423;-58
2021/08/24 02:25:38;;;;;;;10.38;3.45;;;;;;;17.63;100.00;100546.23;1738731;81;21116;-59
2021/08/24 02:28:12;;;;;;;7.13;3.30;;;;;;;17.64;100.00;100542.04;1749653;81;21055;-60
2021/08/24 02:30:44;;;;;;;5.83;2.90;;;;;;;17.61;100.00;100533.25;1744098;81;21435;-60
2021/08/24 02:33:11;;;;;;;10.10;3.27;;;;;;;17.56;100.00;100534.44;1747283;81;21017;-60
2021/08/24 02:35:54;;;;;;;7.13;3.20;;;;;;;17.47;100.00;100535.27;1738794;81;20964;-58
2021/08/24 02:38:25;;;;;;;6.60;3.40;;;;;;;17.41;100.00;100540.61;1746415;81;21123;-58
2021/08/24 02:41:13;;;;;;;4.95;2.52;;;;;;;17.67;100.00;100537.64;1744087;81;20976;-59
2021/08/24 02:44:11;;;;;;;5.33;2.80;;;;;;;17.77;100.00;100537.16;1751241;81;21380;-58
2021/08/24 02:46:41;;;;;;;4.50;2.37;;;;;;;17.79;100.00;100538.23;1788540;79;20900;-58
2021/08/24 02:49:15;;;;;;;7.50;3.10;;;;;;;17.68;100.00;100542.40;1790778;78;21097;-59
2021/08/24 02:51:46;;;;;;;7.33;2.90;;;;;;;17.73;100.00;100551.78;1760138;78;22403;-59
2021/08/24 02:54:19;;;;;;;6.30;3.30;;;;;;;17.73;100.00;100553.91;1780769;78;20922;-57
2021/08/24 02:56:46;;;;;;;7.37;3.33;;;;;;;17.65;100.00;100552.90;1748951;79;20958;-58
2021/08/24 02:59:12;;;;;;;8.17;3.13;;;;;;;17.65;100.00;100549.43;1774046;79;21082;-56
2021/08/24 03:01:39;;;;;;;5.10;3.20;;;;;;;17.67;100.00;100556.62;1780533;79;20964;-57
2021/08/24 03:04:06;;;;;;;7.70;3.77;;;;;;;17.72;100.00;100541.73;1799012;79;21608;-59
2021/08/24 03:06:35;;;;;;;10.17;6.60;;;;;;;17.81;100.00;100548.06;1799873;79;20995;-59
2021/08/24 03:09:02;;;;;;;6.83;4.00;;;;;;;17.78;100.00;100548.50;1789602;79;22484;-58
2021/08/24 03:11:31;;;;;;;6.10;3.60;;;;;;;17.83;100.00;100549.95;1800165;79;20933;-58
2021/08/24 03:14:14;;;;;;;6.40;3.37;;;;;;;17.91;100.00;100541.72;1800843;79;21090;-58
2021/08/24 03:16:45;;;;;;;5.10;2.90;;;;;;;17.96;100.00;100552.42;1800530;79;21251;-59
2021/08/24 03:19:16;;;;;;;8.03;3.70;;;;;;;17.94;100.00;100555.78;1799896;79;20925;-58
2021/08/24 03:21:44;;;;;;;5.33;3.40;;;;;;;18.00;100.00;100564.12;1795527;79;21039;-59
2021/08/24 03:24:12;;;;;;;6.47;3.00;;;;;;;18.02;100.00;100565.21;1795844;79;21011;-58
2021/08/24 03:26:41;;;;;;;6.30;3.23;;;;;;;18.01;100.00;100568.89;1795072;79;21081;-57
2021/08/24 03:29:13;;;;;;;7.87;3.37;;;;;;;17.77;100.00;100563.52;1796024;79;21227;-59
2021/08/24 03:31:40;;;;;;;7.77;3.50;;;;;;;17.90;100.00;100565.17;1799640;79;21125;-59
2021/08/24 03:34:07;;;;;;;8.53;3.90;;;;;;;17.98;100.00;100565.66;1798559;79;20983;-57
2021/08/24 03:36:35;;;;;;;7.83;4.23;;;;;;;18.02;100.00;100566.53;1799130;79;20999;-57
2021/08/24 03:39:02;;;;;;;9.10;4.13;;;;;;;18.08;100.00;100567.77;1793170;79;21125;-59
2021/08/24 03:41:29;;;;;;;6.87;3.90;;;;;;;18.14;100.00;100570.80;1801010;79;22281;-59
2021/08/24 03:43:57;;;;;;;6.37;3.93;;;;;;;18.13;100.00;100570.52;1800664;79;20983;-59
2021/08/24 03:46:23;;;;;;;10.53;4.20;;;;;;;18.29;100.00;100570.39;1799550;79;21039;-57
2021/08/24 03:48:49;;;;;;;11.53;4.13;;;;;;;18.39;100.00;100571.17;1799518;79;22347;-59
2021/08/24 03:51:16;;;;;;;8.33;3.67;;;;;;;18.46;100.00;100571.35;1793701;79;20996;-58
2021/08/24 03:53:42;;;;;;;6.67;3.87;;;;;;;18.53;100.00;100569.94;1799130;79;21156;-59
2021/08/24 03:56:09;;;;;;;11.50;4.33;;;;;;;18.64;100.00;100570.47;1796406;79;20917;-59
2021/08/24 03:58:36;;;;;;;9.70;3.90;;;;;;;18.82;100.00;100572.20;1799531;79;20928;-57
2021/08/24 04:01:03;;;;;;;7.57;3.70;;;;;;;18.95;100.00;100569.34;1801226;78;21053;-59
2021/08/24 04:03:30;;;;;;;11.87;4.27;;;;;;;19.25;100.00;100570.25;1811130;78;20989;-59
2021/08/24 04:06:00;;;;;;;13.47;4.33;;;;;;;19.47;100.00;100571.20;1809919;78;21960;-60
2021/08/24 04:08:27;;;;;;;9.00;4.35;;;;;;;19.96;100.00;100570.32;1804475;79;20979;-57
2021/08/24 04:10:54;;;;;;;8.73;4.30;;;;;;;20.76;100.00;100561.85;1810538;79;20977;-59
2021/08/24 04:13:20;;;;;;;8.20;4.03;;;;;;;21.53;100.00;100562.37;1806233;78;20963;-59
2021/08/24 04:15:47;;;;;;;5.70;3.50;;;;;;;22.34;100.00;100558.40;1806991;79;21034;-59
2021/08/24 04:18:13;;;;;;;7.60;3.90;;;;;;;23.23;100.00;100552.88;1805428;78;21525;-59
2021/08/24 04:20:40;;;;;;;5.17;3.07;;;;;;;23.93;100.00;100544.83;1806224;79;20845;-58
2021/08/24 04:23:07;;;;;;;5.80;3.33;;;;;;;24.69;100.00;100544.56;1809780;79;20963;-58
2021/08/24 04:25:35;;;;;;;6.43;2.97;;;;;;;25.61;93.68;100542.89;1804242;78;21050;-59
2021/08/24 04:28:02;;;;;;;8.40;3.70;;;;;;;26.42;77.31;100537.52;1804060;78;21105;-59
2021/08/24 04:30:30;;;;;;;6.87;3.67;;;;;;;27.01;64.14;100539.59;1811357;78;21561;-59
2021/08/24 04:32:56;;;;;;;7.57;3.80;;;;;;;27.26;59.13;100538.52;1801642;79;21133;-59
2021/08/24 04:35:23;;;;;;;6.62;3.92;;;;;;;27.56;55.89;100538.66;1805607;78;20927;-57
2021/08/24 04:37:49;;;;;;;10.28;4.45;;;;;;;27.93;52.83;100539.20;1811408;78;21110;-60
2021/08/24 04:40:16;;;;;;;7.92;3.95;;;;;;;28.36;50.53;100543.84;1802028;78;20892;-57
2021/08/24 04:42:42;;;;;;;7.97;4.33;;;;;;;28.87;47.72;100543.48;1810873;78;21118;-57
2021/08/24 04:45:10;;;;;;;5.53;3.85;;;;;;;29.07;45.63;100540.97;1811396;78;20943;-57
2021/08/24 04:47:36;;;;;;;7.50;4.62;;;;;;;29.44;44.78;100537.23;1810572;78;20983;-56
2021/08/24 04:50:04;;;;;;;5.78;3.80;;;;;;;30.01;42.84;100532.71;1808691;78;22354;-58
2021/08/24 04:52:32;;;;;;;5.75;4.08;;;;;;;30.30;40.56;100527.67;1807899;78;21060;-57
2021/08/24 04:54:58;;;;;;;8.00;5.42;;;;;;;30.56;39.00;100540.45;1807242;78;22186;-59
2021/08/24 04:57:25;;;;;;;10.23;5.72;;;;;;;30.60;38.63;100538.73;1811450;79;20988;-57
2021/08/24 04:59:52;;;;;;;10.60;5.67;;;;;;;30.56;38.04;100536.42;1811290;78;21548;-58
2021/08/24 05:02:20;;;;;;;7.92;5.22;;;;;;;30.52;36.62;100540.84;1809565;78;21093;-58
2021/08/24 05:04:47;;;;;;;9.98;4.85;;;;;;;30.24;36.87;100536.98;1764153;80;21063;-58
2021/08/24 05:07:13;;;;;;;6.08;4.58;;;;;;;30.26;36.72;100545.53;1756473;80;21893;-59
2021/08/24 05:09:41;;;;;;;7.53;5.00;;;;;;;30.47;37.04;100551.73;1725728;82;20937;-58
2021/08/24 05:12:08;;;;;;;7.45;6.05;;;;;;;30.57;35.94;100544.73;1808685;78;20995;-58
2021/08/24 05:14:34;;;;;;;7.92;5.62;;;;;;;30.50;36.20;100545.75;1802371;78;21054;-57
2021/08/24 05:17:01;;;;;;;7.40;5.08;;;;;;;30.48;35.95;100547.94;1803622;78;21010;-58
2021/08/24 05:19:29;;;;;;;7.12;4.17;;;;;;;30.66;35.30;100548.81;1794220;78;22345;-58
2021/08/24 05:21:55;;;;;;;5.53;3.60;;;;;;;30.68;35.75;100551.42;1801753;78;21010;-58
2021/08/24 05:24:22;;;;;;;5.85;3.58;;;;;;;30.79;36.07;100549.28;1798451;78;21065;-57
2021/08/24 05:26:48;;;;;;;5.17;3.85;;;;;;;31.17;35.34;100548.19;1800540;78;20909;-56
2021/08/24 05:29:16;;;;;;;5.87;3.50;;;;;;;31.33;35.45;100549.11;1796435;78;20924;-57
2021/08/24 05:31:44;;;;;;;6.67;3.60;;;;;;;31.61;35.52;100549.63;1803235;78;21125;-58
2021/08/24 05:34:12;;;;;;;6.65;3.72;;;;;;;31.79;35.69;100549.85;1803329;78;21453;-58
2021/08/24 05:36:38;;;;;;;6.05;3.33;;;;;;;31.64;35.43;100551.12;1797971;79;20904;-57
2021/08/24 05:39:05;;;;;;;5.72;3.62;;;;;;;31.61;35.16;100554.45;1801155;78;20991;-58
2021/08/24 05:41:33;;;;;;;6.03;3.90;;;;;;;31.68;35.08;100558.81;1799174;78;21081;-58
2021/08/24 05:43:59;;;;;;;8.95;3.58;;;;;;;31.39;35.48;100560.77;1811752;78;21182;-58
2021/08/24 05:46:26;;;;;;;5.05;3.60;;;;;;;31.33;36.05;100560.70;1794052;78;20976;-58
2021/08/24 05:48:53;;;;;;;7.90;4.45;;;;;;;31.28;36.40;100562.71;1798635;78;21000;-57
2021/08/24 05:51:20;;;;;;;7.95;3.80;;;;;;;31.35;36.44;100565.77;1803443;78;21039;-57
2021/08/24 05:53:48;;;;;;;7.45;3.45;;;;;;;31.45;36.91;100564.12;1803707;78;20845;-58
2021/08/24 05:56:18;;;;;;;5.37;3.80;;;;;;;31.21;37.53;100569.90;1808268;78;21162;-58
2021/08/24 05:58:44;;;;;;;;;;;;;;;31.17;37.34;100571.08;1806322;78;21078;-58
2021/08/24 06:01:21;;;;;;;6.00;3.92;;;;;;;30.94;38.74;100572.29;1801824;78;20225;-58
2021/08/24 06:03:48;;;;;;;9.25;4.67;;;;;;;30.77;39.37;100575.17;1796630;78;21049;-58
2021/08/24 06:06:24;;;;;;;6.53;3.90;;;;;;;30.72;39.74;100571.78;1798751;78;21058;-57
2021/08/24 06:08:52;;;;;;;7.45;4.25;;;;;;;30.90;40.16;100569.98;1798854;78;21141;-58
2021/08/24 06:11:28;;;;;;;6.10;4.25;;;;;;;31.25;39.38;100577.06;1743170;81;21419;-58
2021/08/24 06:13:55;;;;;;;5.62;3.67;;;;;;;31.11;39.54;100581.77;1748159;81;21098;-59
2021/08/24 06:16:22;;;;;;;7.10;3.92;;;;;;;31.40;40.16;100578.52;1753680;81;20955;-58
2021/08/24 06:18:49;;;;;;;5.92;3.87;;;;;;;31.69;39.33;100574.42;1757085;81;21101;-59
2021/08/24 06:21:16;;;;;;;7.58;4.42;;;;;;;32.10;39.04;100577.99;1749060;81;22358;-57
2021/08/24 06:23:46;;;;;;;6.85;4.67;;;;;;;32.28;38.30;100580.11;1752559;81;22314;-58
2021/08/24 06:26:12;;;;;;;7.08;4.50;;;;;;;32.44;38.95;100581.75;1754175;81;21043;-57
2021/08/24 06:28:39;;;;;;;7.87;4.15;;;;;;;32.76;37.88;100579.56;1746143;81;20988;-58
2021/08/24 06:31:06;;;;;;;6.37;4.35;;;;;;;32.96;37.82;100582.93;1759221;80;21187;-58
2021/08/24 06:33:37;;;;;;;7.20;4.60;;;;;;;32.79;38.59;100577.01;1758045;80;21314;-58
2021/08/24 06:36:05;;;;;;;8.10;4.65;;;;;;;32.77;38.78;100581.14;1738455;81;21097;-58
2021/08/24 06:38:31;;;;;;;5.95;4.55;;;;;;;32.62;38.47;100581.94;1760109;80;21061;-58
2021/08/24 06:40:59;;;;;;;5.40;3.75;;;;;;;32.63;38.78;100580.81;1745137;80;21062;-58
2021/08/24 06:43:27;;;;;;;6.12;3.80;;;;;;;32.83;39.27;100575.80;1751982;79;21054;-58
2021/08/24 06:45:54;;;;;;;6.50;4.92;;;;;;;33.05;38.71;100578.83;1760029;80;21195;-58
2021/08/24 06:48:20;;;;;;;6.35;4.03;;;;;;;32.87;38.82;100584.27;1767879;80;21058;-59
2021/08/24 06:50:48;;;;;;;10.45;4.62;;;;;;;32.53;40.26;100584.42;1763994;80;20888;-58
2021/08/24 06:53:15;;;;;;;6.10;4.15;;;;;;;32.69;40.02;100588.98;1761625;80;21048;-59
2021/08/24 06:55:42;;;;;;;6.97;4.62;;;;;;;32.44;40.51;100593.34;1767297;79;21082;-59
2021/08/24 06:58:09;;;;;;;8.00;4.92;;;;;;;32.07;41.80;100584.02;1767911;79;21102;-58
2021/08/24 07:00:37;;;;;;;9.20;4.78;;;;;;;32.07;41.90;100581.88;1757167;79;20912;-58
2021/08/24 07:03:09;;;;;;;6.75;4.58;;;;;;;32.29;42.10;100582.24;1748690;80;21044;-59
2021/08/24 07:05:41;;;;;;;7.03;5.03;;;;;;;32.21;42.23;100585.20;1745561;80;21721;-60
2021/08/24 07:08:08;;;;;;;;;;;;;;;32.06;43.32;100587.84;1751981;80;20988;-59
2021/08/24 07:10:36;;;;;;;5.60;4.40;;;;;;;32.39;44.06;100592.14;1749450;80;20420;-60
2021/08/24 07:13:03;;;;;;;8.45;4.40;;;;;;;32.43;43.00;100598.51;1745597;80;20908;-58
2021/08/24 07:15:32;;;;;;;7.15;4.30;;;;;;;32.11;43.31;100591.70;1747567;80;21029;-58
2021/08/24 07:17:58;;;;;;;7.35;5.72;;;;;;;32.12;44.23;100594.63;1749888;80;21010;-58
2021/08/24 07:20:26;;;;;;;6.10;4.78;;;;;;;31.77;44.68;100595.19;1747934;80;20995;-60
2021/08/24 07:22:57;;;;;;;5.20;4.33;;;;;;;31.26;45.32;100598.05;1749769;80;21781;-59
2021/08/24 07:25:30;;;;;;;7.10;4.47;;;;;;;30.87;47.17;100604.25;1749045;80;21086;-59
2021/08/24 07:27:54;;;;;;;6.65;4.92;;;;;;;30.60;49.35;100603.86;1741634;80;21170;-59
2021/08/24 07:30:21;;;;;;;6.60;4.55;;;;;;;30.56;51.21;100598.86;1748914;80;21099;-59
2021/08/24 07:32:47;;;;;;;7.08;4.62;;;;;;;30.91;51.70;100602.52;1748266;80;21007;-58
2021/08/24 07:35:14;;;;;;;6.30;5.17;;;;;;;30.96;53.56;100601.84;1744866;80;21188;-60
2021/08/24 07:37:41;;;;;;;5.67;4.85;;;;;;;31.30;50.55;100600.38;1740718;80;20952;-60
2021/08/24 07:40:08;;;;;;;9.78;5.05;;;;;;;31.48;48.00;100597.96;1749179;80;20998;-59
2021/08/24 07:42:35;;;;;;;5.00;4.00;;;;;;;31.73;48.26;100595.03;1744432;80;20999;-59
2021/08/24 07:45:02;;;;;;;6.50;3.42;;;;;;;32.00;47.57;100601.23;1745837;80;20995;-56
2021/08/24 07:47:28;;;;;;;5.42;4.28;;;;;;;32.12;45.87;100597.33;1748572;80;21127;-59
2021/08/24 07:49:55;;;;;;;5.17;3.87;;;;;;;32.23;46.28;100601.84;1746932;80;22439;-59
2021/08/24 07:52:21;;;;;;;5.47;4.08;;;;;;;32.29;44.88;100599.22;1746943;80;21067;-59
2021/08/24 07:54:50;;;;;;;5.08;4.20;;;;;;;31.92;44.96;100592.60;1734231;80;20964;-57
2021/08/24 07:57:18;;;;;;;5.60;4.33;;;;;;;31.37;46.49;100595.33;1741700;80;20943;-57
2021/08/24 07:59:45;;;;;;;5.17;4.50;;;;;;;31.10;48.44;100588.80;1747978;80;21122;-59
2021/08/24 08:02:14;;;;;;;6.85;4.20;;;;;;;31.24;51.80;100585.44;1744644;80;20992;-60
2021/08/24 08:04:40;;;;;;;7.35;4.95;;;;;;;31.68;51.16;100581.72;1739788;80;21075;-61
2021/08/24 08:07:07;;;;;;;5.47;4.47;;;;;;;32.30;49.20;100581.12;1738769;80;21478;-59
2021/08/24 08:09:34;;;;;;;5.50;4.00;;;;;;;32.76;45.89;100584.40;1806091;79;21014;-61
2021/08/24 08:12:01;;;;;;;6.83;4.55;;;;;;;32.51;45.90;100585.31;1803006;78;21192;-60
2021/08/24 08:14:29;;;;;;;7.42;4.33;;;;;;;32.53;46.31;100578.45;1798678;79;20984;-61
2021/08/24 08:16:55;;;;;;;7.25;4.47;;;;;;;32.91;45.31;100580.36;1812402;79;20964;-61
2021/08/24 08:19:22;;;;;;;4.90;4.03;;;;;;;32.88;43.78;100579.66;1809872;78;21485;-58
2021/08/24 08:21:48;;;;;;;4.22;3.35;;;;;;;33.16;43.87;100572.71;1806936;78;20971;-61
2021/08/24 08:24:15;;;;;;;5.58;3.83;;;;;;;33.31;42.85;100574.05;1809793;79;21125;-62
2021/08/24 08:26:41;;;;;;;4.17;3.37;;;;;;;33.56;42.65;100572.85;1809758;78;20998;-61
2021/08/24 08:29:11;;;;;;;4.37;3.22;;;;;;;33.68;40.71;100572.12;1805732;78;20919;-61
2021/08/24 08:31:39;;;;;;;4.00;3.35;;;;;;;33.90;40.11;100569.84;1800792;78;20995;-59
2021/08/24 08:34:05;;;;;;;3.50;2.90;;;;;;;33.65;39.39;100572.23;1803016;78;21475;-61
2021/08/24 08:36:32;;;;;;;6.50;2.70;;;;;;;33.67;38.92;100572.68;1805967;79;21134;-62
2021/08/24 08:38:58;;;;;;;3.70;3.10;;;;;;;33.23;40.96;100567.36;1810376;78;20987;-62
2021/08/24 08:42:12;;;;;;;3.40;2.25;;;;;;;33.48;40.63;100573.15;1808041;78;20920;-62
2021/08/24 08:44:52;;;;;;;4.83;2.50;;;;;;;33.58;39.41;100574.67;1808349;79;21035;-61
2021/08/24 08:47:28;;;;;;;4.62;2.33;;;;;;;33.42;39.59;100573.10;1809404;78;21050;-61
2021/08/24 08:50:40;;;;;;;3.92;2.60;;;;;;;33.53;39.13;100572.97;1806245;79;21157;-62
2021/08/24 08:53:20;;;;;;;3.12;2.20;;;;;;;33.74;37.50;100575.65;1809522;78;22331;-62
2021/08/24 08:56:08;;;;;;;3.47;2.27;;;;;;;33.82;36.95;100573.98;1807980;78;20924;-60
2021/08/24 08:59:00;;;;;;;4.62;2.65;;;;;;;33.54;36.66;100570.49;1803388;78;22512;-62
2021/08/24 09:02:00;;;;;;;5.12;2.85;;;;;;;33.47;37.36;100560.77;1797448;78;21441;-59
2021/08/24 09:04:35;;;;;;;;;;;;;;;34.08;36.30;100550.78;1805938;78;20844;-60
2021/08/24 09:07:02;;;;;;;4.25;3.40;;;;;;;34.35;35.95;100558.27;1795947;79;20141;-57
2021/08/24 09:09:33;;;;;;;4.12;2.87;;;;;;;33.95;35.10;100549.94;1800534;79;42961;-60
2021/08/24 09:11:59;;;;;;;4.95;2.80;;;;;;;33.87;35.36;100550.25;1798582;79;20975;-61
2021/08/24 09:14:30;;;;;;;4.40;2.92;;;;;;;33.77;35.74;100547.95;1773394;79;20940;-61
2021/08/24 09:17:05;;;;;;;4.12;2.75;;;;;;;33.76;35.65;100545.02;1764544;79;21857;-58
2021/08/24 09:19:43;;;;;;;4.30;3.35;;;;;;;33.79;34.71;100544.37;1796074;79;20986;-60
2021/08/24 09:22:13;;;;;;;5.30;2.90;;;;;;;33.77;35.34;100541.19;1799947;79;21083;-61
2021/08/24 09:24:41;;;;;;;5.37;2.87;;;;;;;33.93;35.36;100547.33;1797570;79;20963;-60
2021/08/24 09:27:28;;;;;;;3.72;2.60;;;;;;;34.21;34.32;100543.47;1793201;79;20989;-61
2021/08/24 09:29:57;;;;;;;4.17;3.35;;;;;;;34.53;34.62;100534.53;1799667;79;21789;-62
2021/08/24 09:32:25;;;;;;;7.50;5.08;;;;;;;34.89;35.14;100535.63;1796611;78;20889;-59
2021/08/24 09:35:12;;;;;;;8.20;5.35;;;;;;;34.88;34.99;100535.41;1798486;79;22882;-57
2021/08/24 09:37:39;;;;;;;7.70;4.50;;;;;;;34.85;33.88;100534.20;1796589;79;21012;-61
2021/08/24 09:40:09;;;;;;;7.28;4.42;;;;;;;34.73;34.09;100533.39;1796526;79;20945;-59
2021/08/24 09:42:45;;;;;;;7.20;4.20;;;;;;;34.60;34.94;100534.75;1792491;79;21130;-61
2021/08/24 09:45:27;;;;;;;7.95;4.70;;;;;;;34.19;34.53;100530.86;1796615;79;21059;-61
2021/08/24 09:48:03;;;;;;;8.75;4.50;;;;;;;34.10;35.34;100533.09;1795053;78;21130;-58
2021/08/24 09:50:34;;;;;;;6.28;4.30;;;;;;;34.04;34.85;100529.58;1799210;79;21524;-62
2021/08/24 09:53:01;;;;;;;9.28;5.00;;;;;;;33.93;35.54;100531.89;1792341;79;21019;-62
2021/08/24 09:55:29;;;;;;;9.38;4.90;;;;;;;33.77;35.58;100529.59;1795929;78;21201;-61
2021/08/24 09:58:02;;;;;;;8.50;4.20;;;;;;;33.76;35.55;100523.95;1795060;78;21026;-60
2021/08/24 10:00:55;;;;;;;6.40;4.50;;;;;;;33.76;35.63;100526.09;1794592;78;21462;-61
2021/08/24 10:03:40;;;;;;;7.85;6.60;;;;;;;33.81;36.17;100527.80;1786307;79;21031;-60
2021/08/24 10:06:31;;;;;;;8.28;6.12;;;;;;;33.92;36.51;100525.47;1775506;78;21041;-61
2021/08/24 10:09:18;;;;;;;6.45;5.55;;;;;;;33.87;37.46;100526.47;1770575;78;21120;-62
2021/08/24 10:11:44;;;;;;;7.53;5.95;;;;;;;33.89;36.82;100524.21;1756631;78;21051;-63
2021/08/24 10:14:21;;;;;;;6.75;5.50;;;;;;;33.80;36.86;100519.47;1773198;78;21058;-61
2021/08/24 10:16:53;;;;;;;7.25;5.53;;;;;;;34.17;36.23;100514.16;1771213;78;21034;-60
2021/08/24 10:19:30;;;;;;;7.37;5.55;;;;;;;34.26;35.94;100508.09;1771493;79;21147;-62
2021/08/24 10:22:02;;;;;;;7.90;6.25;;;;;;;34.53;35.61;100509.38;1774081;78;21100;-59
2021/08/24 10:24:38;;;;;;;7.37;5.58;;;;;;;35.01;35.18;100506.44;1773170;78;21042;-60
2021/08/24 10:27:23;;;;;;;6.45;5.50;;;;;;;35.39;35.02;100500.56;1769877;78;21137;-62
2021/08/24 10:29:56;;;;;;;7.28;5.65;;;;;;;35.50;34.44;100505.74;1755776;79;21047;-60
2021/08/24 10:32:34;;;;;;;8.55;5.55;;;;;;;35.10;34.88;100495.67;1779489;78;21027;-61
2021/08/24 10:35:11;;;;;;;7.53;6.47;;;;;;;34.71;35.49;100504.53;1771634;78;21122;-61
2021/08/24 10:37:45;;;;;;;6.78;5.92;;;;;;;34.29;36.25;100496.03;1769549;78;20876;-62
2021/08/24 10:40:20;;;;;;;7.30;6.50;;;;;;;33.77;36.93;100508.74;1770139;78;21067;-61
2021/08/24 10:43:17;;;;;;;8.65;7.03;;;;;;;33.82;37.07;100503.68;1782795;78;21510;-61
2021/08/24 10:46:02;;;;;;;7.25;6.50;;;;;;;33.72;36.92;100494.63;1772111;78;21031;-61
2021/08/24 10:48:28;;;;;;;7.50;6.80;;;;;;;34.06;36.97;100492.18;1766296;78;21588;-61
2021/08/24 10:51:12;;;;;;;13.20;6.72;;;;;;;34.81;35.70;100487.23;1768490;78;20984;-60
2021/08/24 10:53:53;;;;;;;7.75;5.97;;;;;;;35.42;34.06;100483.61;1783287;78;20980;-62
2021/08/24 10:56:30;;;;;;;6.90;6.17;;;;;;;35.74;33.03;100476.35;1784104;78;21044;-61
2021/08/24 10:59:41;;;;;;;7.33;6.50;;;;;;;35.65;33.20;100476.28;1783093;78;20992;-59
2021/08/24 11:02:35;;;;;;;6.95;6.25;;;;;;;35.46;33.20;100470.94;1781515;78;21152;-60
2021/08/24 11:05:40;;;;;;;6.87;6.17;;;;;;;35.23;33.71;100465.81;1791081;79;20921;-61
2021/08/24 11:08:47;;;;;;;9.18;8.13;;;;;;;35.01;33.73;100466.58;1793171;79;21063;-60
2021/08/24 11:11:47;;;;;;;7.70;6.90;;;;;;;35.32;33.72;100464.55;1792444;79;21012;-61
2021/08/24 11:14:47;;;;;;;9.55;8.60;;;;;;;35.40;32.78;100456.63;1795094;79;21498;-61
2021/08/24 11:17:57;;;;;;;11.43;9.73;;;;;;;35.05;33.36;100455.85;1792003;79;21152;-61
2021/08/24 11:20:38;;;;;;;10.55;8.90;;;;;;;34.45;34.38;100456.91;1795266;79;20968;-61
2021/08/24 11:23:35;;;;;;;9.45;8.55;;;;;;;34.47;34.59;100457.34;1760802;79;20916;-63
2021/08/24 11:26:39;;;;;;;11.33;7.47;;;;;;;34.47;34.45;100454.63;1649128;86;21053;-64
2021/08/24 11:29:42;;;;;;;7.72;6.92;;;;;;;34.36;35.26;100452.97;1648331;86;21075;-62
2021/08/24 11:32:29;;;;;;;8.00;7.03;;;;;;;34.01;35.89;100452.59;1649054;85;21142;-62
2021/08/24 11:35:10;;;;;;;8.63;6.95;;;;;;;33.18;36.86;100455.65;1649000;86;21095;-60
2021/08/24 11:37:51;;;;;;;9.00;8.20;;;;;;;32.83;38.16;100449.70;1644876;86;21115;-61
2021/08/24 11:40:43;;;;;;;8.60;7.80;;;;;;;32.71;38.75;100453.67;1639553;86;21115;-61
2021/08/24 11:43:35;;;;;;;8.78;7.87;;;;;;;32.64;38.35;100447.44;1643801;86;21404;-60
2021/08/24 11:46:06;;;;;;;9.00;8.18;;;;;;;32.11;39.25;100458.20;1649354;86;21175;-62
2021/08/24 11:48:36;;;;;;;9.98;9.05;;;;;;;32.15;40.14;100453.75;1641225;86;21151;-58